sensor_id;sensor_type;location;lat;lon;timestamp;pressure;altitude;pressure_sealevel;temperature;humidity
35226;BME280;21813;49.686;21.766;2023-03-04T00:01:13;98362.22;;;-0.88;100.00
35226;BME280;21813;49.686;21.766;2023-03-04T00:03:40;98357.09;;;-0.88;100.00
35226;BME280;21813;49.686;21.766;2023-03-04T00:06:06;98347.84;;;-0.92;100.00
35226;BME280;21813;49.686;21.766;2023-03-04T00:08:32;98356.19;;;-0.87;100.00
35226;BME280;21813;49.686;21.766;2023-03-04T00:11:10;98357.19;;;-0.91;100.00
35226;BME280;21813;49.686;21.766;2023-03-04T00:13:40;98335.34;;;-1.01;100.00
35226;BME280;21813;49.686;21.766;2023-03-04T00:16:06;98347.19;;;-0.97;100.00
35226;BME280;21813;49.686;21.766;2023-03-04T00:18:36;98342.88;;;-0.97;100.00
35226;BME280;21813;49.686;21.766;2023-03-04T00:21:04;98345.50;;;-0.98;100.00
35226;BME280;21813;49.686;21.766;2023-03-04T00:23:33;98340.47;;;-1.01;100.00
35226;BME280;21813;49.686;21.766;2023-03-04T00:26:02;98342.09;;;-0.99;100.00
35226;BME280;21813;49.686;21.766;2023-03-04T00:28:33;98346.38;;;-0.99;100.00
35226;BME280;21813;49.686;21.766;2023-03-04T00:31:14;98336.94;;;-0.97;100.00
35226;BME280;21813;49.686;21.766;2023-03-04T00:34:10;98343.00;;;-1.00;100.00
35226;BME280;21813;49.686;21.766;2023-03-04T00:36:35;98334.47;;;-1.00;100.00
35226;BME280;21813;49.686;21.766;2023-03-04T00:39:03;98336.94;;;-0.97;100.00
35226;BME280;21813;49.686;21.766;2023-03-04T00:41:29;98325.88;;;-0.98;100.00
35226;BME280;21813;49.686;21.766;2023-03-04T00:43:56;98326.66;;;-0.96;100.00
35226;BME280;21813;49.686;21.766;2023-03-04T00:46:23;98324.25;;;-1.00;100.00
35226;BME280;21813;49.686;21.766;2023-03-04T00:48:50;98320.84;;;-1.01;100.00
35226;BME280;21813;49.686;21.766;2023-03-04T00:51:16;98316.56;;;-1.00;100.00
35226;BME280;21813;49.686;21.766;2023-03-04T00:53:44;98314.06;;;-1.02;100.00
35226;BME280;21813;49.686;21.766;2023-03-04T00:56:10;98318.38;;;-1.02;100.00
35226;BME280;21813;49.686;21.766;2023-03-04T00:58:45;98314.19;;;-1.05;100.00
35226;BME280;21813;49.686;21.766;2023-03-04T01:01:11;98309.09;;;-1.06;100.00
35226;BME280;21813;49.686;21.766;2023-03-04T01:04:00;98303.91;;;-1.03;100.00
35226;BME280;21813;49.686;21.766;2023-03-04T01:06:26;98310.69;;;-1.02;100.00
35226;BME280;21813;49.686;21.766;2023-03-04T01:09:01;98292.13;;;-1.07;100.00
35226;BME280;21813;49.686;21.766;2023-03-04T01:11:27;98295.50;;;-1.07;100.00
35226;BME280;21813;49.686;21.766;2023-03-04T01:14:00;98294.88;;;-1.13;100.00
35226;BME280;21813;49.686;21.766;2023-03-04T01:16:25;98291.50;;;-1.15;100.00
35226;BME280;21813;49.686;21.766;2023-03-04T01:19:05;98300.09;;;-1.16;100.00
35226;BME280;21813;49.686;21.766;2023-03-04T01:21:40;98300.97;;;-1.17;100.00
35226;BME280;21813;49.686;21.766;2023-03-04T01:24:10;98281.72;;;-1.27;100.00
35226;BME280;21813;49.686;21.766;2023-03-04T01:26:42;98284.97;;;-1.22;100.00
35226;BME280;21813;49.686;21.766;2023-03-04T01:29:11;98279.13;;;-1.26;100.00
35226;BME280;21813;49.686;21.766;2023-03-04T01:34:40;98279.84;;;-1.22;100.00
35226;BME280;21813;49.686;21.766;2023-03-04T01:37:06;98275.56;;;-1.22;100.00
35226;BME280;21813;49.686;21.766;2023-03-04T01:39:55;98267.84;;;-1.20;100.00
35226;BME280;21813;49.686;21.766;2023-03-04T01:42:29;98272.97;;;-1.20;100.00
35226;BME280;21813;49.686;21.766;2023-03-04T01:49:28;98267.75;;;-1.17;100.00
35226;BME280;21813;49.686;21.766;2023-03-04T01:52:17;98264.31;;;-1.16;100.00
35226;BME280;21813;49.686;21.766;2023-03-04T01:54:49;98259.22;;;-1.18;100.00
35226;BME280;21813;49.686;21.766;2023-03-04T02:00:33;98254.16;;;-1.19;100.00
35226;BME280;21813;49.686;21.766;2023-03-04T02:04:15;98260.84;;;-1.15;100.00
35226;BME280;21813;49.686;21.766;2023-03-04T02:07:27;98256.63;;;-1.16;100.00
35226;BME280;21813;49.686;21.766;2023-03-04T02:10:03;98259.06;;;-1.13;100.00
35226;BME280;21813;49.686;21.766;2023-03-04T02:12:31;98254.78;;;-1.13;100.00
35226;BME280;21813;49.686;21.766;2023-03-04T02:14:56;98251.53;;;-1.16;100.00
35226;BME280;21813;49.686;21.766;2023-03-04T02:17:28;98244.63;;;-1.14;100.00
35226;BME280;21813;49.686;21.766;2023-03-04T02:22:34;98234.53;;;-1.19;100.00
35226;BME280;21813;49.686;21.766;2023-03-04T02:25:10;98232.00;;;-1.19;100.00
35226;BME280;21813;49.686;21.766;2023-03-04T02:27:42;98235.22;;;-1.14;100.00
35226;BME280;21813;49.686;21.766;2023-03-04T02:33:17;98227.66;;;-1.17;100.00
35226;BME280;21813;49.686;21.766;2023-03-04T02:36:09;98222.59;;;-1.18;100.00
35226;BME280;21813;49.686;21.766;2023-03-04T02:38:40;98226.84;;;-1.17;100.00
35226;BME280;21813;49.686;21.766;2023-03-04T02:41:10;98218.38;;;-1.19;100.00
35226;BME280;21813;49.686;21.766;2023-03-04T02:43:39;98207.41;;;-1.23;100.00
35226;BME280;21813;49.686;21.766;2023-03-04T02:46:11;98216.59;;;-1.17;100.00
35226;BME280;21813;49.686;21.766;2023-03-04T02:48:49;98206.59;;;-1.23;100.00
35226;BME280;21813;49.686;21.766;2023-03-04T02:51:15;98203.25;;;-1.25;100.00
35226;BME280;21813;49.686;21.766;2023-03-04T02:54:16;98207.41;;;-1.23;100.00
35226;BME280;21813;49.686;21.766;2023-03-04T02:57:02;98204.19;;;-1.28;100.00
35226;BME280;21813;49.686;21.766;2023-03-04T03:02:59;98194.25;;;-1.36;100.00
35226;BME280;21813;49.686;21.766;2023-03-04T03:05:32;98197.53;;;-1.32;100.00
35226;BME280;21813;49.686;21.766;2023-03-04T03:08:00;98182.47;;;-1.40;100.00
35226;BME280;21813;49.686;21.766;2023-03-04T03:10:31;98196.84;;;-1.37;100.00
35226;BME280;21813;49.686;21.766;2023-03-04T03:13:50;98175.88;;;-1.47;100.00
35226;BME280;21813;49.686;21.766;2023-03-04T03:16:42;98171.66;;;-1.48;100.00
35226;BME280;21813;49.686;21.766;2023-03-04T03:19:25;98184.34;;;-1.45;100.00
35226;BME280;21813;49.686;21.766;2023-03-04T03:22:26;98179.41;;;-1.49;100.00
35226;BME280;21813;49.686;21.766;2023-03-04T03:25:31;98171.00;;;-1.53;100.00
35226;BME280;21813;49.686;21.766;2023-03-04T03:28:17;98177.72;;;-1.50;100.00
35226;BME280;21813;49.686;21.766;2023-03-04T03:31:29;98172.66;;;-1.52;100.00
35226;BME280;21813;49.686;21.766;2023-03-04T03:34:38;98168.44;;;-1.53;100.00
35226;BME280;21813;49.686;21.766;2023-03-04T03:37:22;98170.94;;;-1.51;100.00
35226;BME280;21813;49.686;21.766;2023-03-04T03:39:50;98163.44;;;-1.56;100.00
35226;BME280;21813;49.686;21.766;2023-03-04T03:42:16;98164.25;;;-1.55;100.00
35226;BME280;21813;49.686;21.766;2023-03-04T03:44:45;98163.44;;;-1.56;100.00
35226;BME280;21813;49.686;21.766;2023-03-04T03:47:11;98149.97;;;-1.61;100.00
35226;BME280;21813;49.686;21.766;2023-03-04T03:49:38;98155.00;;;-1.58;100.00
35226;BME280;21813;49.686;21.766;2023-03-04T03:52:07;98155.91;;;-1.60;100.00
35226;BME280;21813;49.686;21.766;2023-03-04T03:54:34;98150.94;;;-1.63;100.00
35226;BME280;21813;49.686;21.766;2023-03-04T03:56:59;98146.75;;;-1.66;100.00
35226;BME280;21813;49.686;21.766;2023-03-04T04:03:28;98141.75;;;-1.69;100.00
35226;BME280;21813;49.686;21.766;2023-03-04T04:08:47;98131.72;;;-1.75;100.00
35226;BME280;21813;49.686;21.766;2023-03-04T04:19:05;98123.38;;;-1.80;100.00
35226;BME280;21813;49.686;21.766;2023-03-04T04:21:37;98130.19;;;-1.79;100.00
35226;BME280;21813;49.686;21.766;2023-03-04T04:24:04;98120.91;;;-1.82;100.00
35226;BME280;21813;49.686;21.766;2023-03-04T04:26:30;98109.13;;;-1.86;100.00
35226;BME280;21813;49.686;21.766;2023-03-04T04:28:56;98103.94;;;-1.84;100.00
35226;BME280;21813;49.686;21.766;2023-03-04T04:31:25;98102.34;;;-1.87;100.00
35226;BME280;21813;49.686;21.766;2023-03-04T04:33:53;98110.06;;;-1.88;100.00
35226;BME280;21813;49.686;21.766;2023-03-04T04:46:42;98089.34;;;-2.04;100.00
35226;BME280;21813;49.686;21.766;2023-03-04T04:49:11;98094.44;;;-2.04;100.00
35226;BME280;21813;49.686;21.766;2023-03-04T04:51:50;98093.69;;;-2.07;100.00
35226;BME280;21813;49.686;21.766;2023-03-04T04:54:18;98093.69;;;-2.07;100.00
35226;BME280;21813;49.686;21.766;2023-03-04T04:56:49;98093.81;;;-2.10;100.00
35226;BME280;21813;49.686;21.766;2023-03-04T05:08:01;98084.03;;;-2.22;100.00
35226;BME280;21813;49.686;21.766;2023-03-04T05:10:27;98079.94;;;-2.28;100.00
35226;BME280;21813;49.686;21.766;2023-03-04T05:12:55;98080.94;;;-2.32;100.00
35226;BME280;21813;49.686;21.766;2023-03-04T05:15:21;98083.56;;;-2.35;100.00
35226;BME280;21813;49.686;21.766;2023-03-04T05:17:51;98086.97;;;-2.35;100.00
35226;BME280;21813;49.686;21.766;2023-03-04T05:20:24;98084.50;;;-2.38;100.00
35226;BME280;21813;49.686;21.766;2023-03-04T05:23:05;98084.72;;;-2.44;100.00
35226;BME280;21813;49.686;21.766;2023-03-04T05:25:33;98090.53;;;-2.40;100.00
35226;BME280;21813;49.686;21.766;2023-03-04T05:28:00;98096.59;;;-2.43;100.00
35226;BME280;21813;49.686;21.766;2023-03-04T05:30:26;98091.47;;;-2.43;100.00
35226;BME280;21813;49.686;21.766;2023-03-04T05:32:58;98080.69;;;-2.51;100.00
35226;BME280;21813;49.686;21.766;2023-03-04T05:35:27;98091.66;;;-2.49;100.00
35226;BME280;21813;49.686;21.766;2023-03-04T05:37:56;98083.25;;;-2.51;100.00
35226;BME280;21813;49.686;21.766;2023-03-04T05:40:23;98089.13;;;-2.49;100.00
35226;BME280;21813;49.686;21.766;2023-03-04T05:42:52;98095.03;;;-2.47;100.00
35226;BME280;21813;49.686;21.766;2023-03-04T05:45:17;98079.91;;;-2.53;100.00
35226;BME280;21813;49.686;21.766;2023-03-04T05:47:44;98094.97;;;-2.45;100.00
35226;BME280;21813;49.686;21.766;2023-03-04T05:50:10;98090.03;;;-2.50;100.00
35226;BME280;21813;49.686;21.766;2023-03-04T05:52:44;98090.78;;;-2.48;100.00
35226;BME280;21813;49.686;21.766;2023-03-04T05:55:10;98095.88;;;-2.46;100.00
35226;BME280;21813;49.686;21.766;2023-03-04T05:57:43;98094.84;;;-2.41;100.00
35226;BME280;21813;49.686;21.766;2023-03-04T06:00:10;98096.47;;;-2.40;100.00
35226;BME280;21813;49.686;21.766;2023-03-04T06:02:44;98089.63;;;-2.38;100.00
35226;BME280;21813;49.686;21.766;2023-03-04T06:05:14;98087.78;;;-2.34;100.00
35226;BME280;21813;49.686;21.766;2023-03-04T06:07:42;98088.38;;;-2.26;100.00
35226;BME280;21813;49.686;21.766;2023-03-04T06:41:12;98080.53;;;-0.80;100.00
35226;BME280;21813;49.686;21.766;2023-03-04T06:43:43;98072.91;;;-0.60;100.00
35226;BME280;21813;49.686;21.766;2023-03-04T06:46:19;98076.16;;;-0.36;100.00
35226;BME280;21813;49.686;21.766;2023-03-04T06:58:53;98063.50;;;2.02;98.42
35226;BME280;21813;49.686;21.766;2023-03-04T07:25:38;98027.88;;;6.89;72.18
35226;BME280;21813;49.686;21.766;2023-03-04T07:28:05;98024.47;;;7.12;71.38
35226;BME280;21813;49.686;21.766;2023-03-04T07:30:34;98021.16;;;7.58;69.10
35226;BME280;21813;49.686;21.766;2023-03-04T07:33:08;98027.78;;;8.19;66.14
35226;BME280;21813;49.686;21.766;2023-03-04T07:35:36;98035.50;;;8.76;64.12
35226;BME280;21813;49.686;21.766;2023-03-04T07:38:03;98038.31;;;9.49;61.08
35226;BME280;21813;49.686;21.766;2023-03-04T07:41:00;98021.88;;;10.22;58.24
35226;BME280;21813;49.686;21.766;2023-03-04T07:43:27;98018.97;;;10.46;57.51
35226;BME280;21813;49.686;21.766;2023-03-04T07:49:04;98017.47;;;10.23;57.41
35226;BME280;21813;49.686;21.766;2023-03-04T07:55:00;98023.25;;;12.50;50.92
35226;BME280;21813;49.686;21.766;2023-03-04T08:00:26;97996.34;;;14.36;44.29
35226;BME280;21813;49.686;21.766;2023-03-04T08:02:52;98001.44;;;14.72;41.79
35226;BME280;21813;49.686;21.766;2023-03-04T08:05:24;98005.78;;;14.89;40.85
35226;BME280;21813;49.686;21.766;2023-03-04T08:07:56;98007.31;;;15.08;40.08
35226;BME280;21813;49.686;21.766;2023-03-04T08:10:25;98016.41;;;15.29;39.36
35226;BME280;21813;49.686;21.766;2023-03-04T08:12:52;98014.84;;;15.02;39.19
35226;BME280;21813;49.686;21.766;2023-03-04T08:15:17;97996.69;;;13.54;41.17
35226;BME280;21813;49.686;21.766;2023-03-04T08:17:43;98011.00;;;11.56;45.71
35226;BME280;21813;49.686;21.766;2023-03-04T08:20:09;98014.47;;;9.86;50.14
35226;BME280;21813;49.686;21.766;2023-03-04T08:22:35;98018.75;;;8.58;53.94
35226;BME280;21813;49.686;21.766;2023-03-04T08:25:01;98017.59;;;7.59;56.90
35226;BME280;21813;49.686;21.766;2023-03-04T08:27:34;98021.25;;;6.72;60.89
35226;BME280;21813;49.686;21.766;2023-03-04T08:30:05;98008.06;;;5.88;64.29
35226;BME280;21813;49.686;21.766;2023-03-04T08:32:32;98007.09;;;5.37;68.25
35226;BME280;21813;49.686;21.766;2023-03-04T08:35:01;98009.28;;;5.04;69.70
35226;BME280;21813;49.686;21.766;2023-03-04T08:37:31;98006.75;;;4.75;71.64
35226;BME280;21813;49.686;21.766;2023-03-04T08:39:56;98010.84;;;4.51;73.36
35226;BME280;21813;49.686;21.766;2023-03-04T08:42:22;98015.66;;;4.29;73.82
35226;BME280;21813;49.686;21.766;2023-03-04T08:44:49;97991.78;;;3.97;74.79
35226;BME280;21813;49.686;21.766;2023-03-04T08:47:16;97998.69;;;3.82;77.34
35226;BME280;21813;49.686;21.766;2023-03-04T08:49:41;98001.78;;;3.73;78.50
35226;BME280;21813;49.686;21.766;2023-03-04T08:52:07;97990.16;;;3.66;78.91
35226;BME280;21813;49.686;21.766;2023-03-04T08:54:33;98003.03;;;3.66;78.54
35226;BME280;21813;49.686;21.766;2023-03-04T08:56:59;98004.78;;;3.66;80.17
35226;BME280;21813;49.686;21.766;2023-03-04T08:59:25;97988.69;;;3.62;79.82
35226;BME280;21813;49.686;21.766;2023-03-04T09:01:53;97984.91;;;3.53;78.03
35226;BME280;21813;49.686;21.766;2023-03-04T09:04:19;97991.88;;;3.51;78.61
35226;BME280;21813;49.686;21.766;2023-03-04T09:06:46;98003.00;;;3.52;78.39
35226;BME280;21813;49.686;21.766;2023-03-04T09:09:11;97987.56;;;3.52;78.68
35226;BME280;21813;49.686;21.766;2023-03-04T09:11:37;97990.88;;;3.54;79.18
35226;BME280;21813;49.686;21.766;2023-03-04T09:14:03;97986.72;;;3.51;78.19
35226;BME280;21813;49.686;21.766;2023-03-04T09:16:31;97989.22;;;3.53;78.79
35226;BME280;21813;49.686;21.766;2023-03-04T09:19:01;97997.13;;;3.50;78.92
35226;BME280;21813;49.686;21.766;2023-03-04T09:21:27;97988.56;;;3.49;79.18
35226;BME280;21813;49.686;21.766;2023-03-04T09:23:52;97989.88;;;3.56;79.75
35226;BME280;21813;49.686;21.766;2023-03-04T09:26:25;97973.97;;;3.64;79.35
35226;BME280;21813;49.686;21.766;2023-03-04T09:28:56;97967.53;;;3.71;80.10
35226;BME280;21813;49.686;21.766;2023-03-04T09:31:23;97975.28;;;3.85;82.34
35226;BME280;21813;49.686;21.766;2023-03-04T09:33:50;97986.53;;;3.98;81.70
35226;BME280;21813;49.686;21.766;2023-03-04T09:36:18;97979.00;;;4.10;80.86
35226;BME280;21813;49.686;21.766;2023-03-04T09:38:44;97987.91;;;4.18;80.75
35226;BME280;21813;49.686;21.766;2023-03-04T09:41:24;97984.16;;;4.24;80.15
35226;BME280;21813;49.686;21.766;2023-03-04T09:44:04;97984.69;;;4.29;79.26
35226;BME280;21813;49.686;21.766;2023-03-04T09:46:37;97981.72;;;4.35;79.24
35226;BME280;21813;49.686;21.766;2023-03-04T09:49:03;97981.66;;;4.36;78.18
35226;BME280;21813;49.686;21.766;2023-03-04T09:54:07;97981.84;;;4.33;78.86
35226;BME280;21813;49.686;21.766;2023-03-04T09:56:41;97976.59;;;4.21;80.58
35226;BME280;21813;49.686;21.766;2023-03-04T10:01:51;97970.50;;;4.08;81.80
35226;BME280;21813;49.686;21.766;2023-03-04T10:04:41;97967.19;;;3.91;83.40
35226;BME280;21813;49.686;21.766;2023-03-04T10:07:18;97974.94;;;3.91;84.14
35226;BME280;21813;49.686;21.766;2023-03-04T10:09:54;97965.25;;;3.95;83.38
35226;BME280;21813;49.686;21.766;2023-03-04T10:12:23;97965.44;;;3.92;82.80
35226;BME280;21813;49.686;21.766;2023-03-04T10:15:06;97968.13;;;3.90;84.09
35226;BME280;21813;49.686;21.766;2023-03-04T10:17:47;97973.06;;;3.93;83.38
35226;BME280;21813;49.686;21.766;2023-03-04T10:20:22;97972.91;;;3.96;83.48
35226;BME280;21813;49.686;21.766;2023-03-04T10:22:55;97974.81;;;4.07;84.00
35226;BME280;21813;49.686;21.766;2023-03-04T10:25:31;97978.53;;;4.17;83.48
35226;BME280;21813;49.686;21.766;2023-03-04T10:28:47;97963.16;;;4.30;82.87
35226;BME280;21813;49.686;21.766;2023-03-04T10:31:45;97957.72;;;4.34;81.36
35226;BME280;21813;49.686;21.766;2023-03-04T10:34:26;97958.13;;;4.41;80.71
35226;BME280;21813;49.686;21.766;2023-03-04T10:37:01;97956.31;;;4.43;81.76
35226;BME280;21813;49.686;21.766;2023-03-04T10:39:30;97964.75;;;4.45;79.86
35226;BME280;21813;49.686;21.766;2023-03-04T10:42:00;97961.28;;;4.46;78.81
35226;BME280;21813;49.686;21.766;2023-03-04T10:44:26;97975.66;;;4.36;76.41
35226;BME280;21813;49.686;21.766;2023-03-04T10:46:55;97964.97;;;4.28;77.54
35226;BME280;21813;49.686;21.766;2023-03-04T10:49:23;97960.75;;;4.27;80.41
35226;BME280;21813;49.686;21.766;2023-03-04T10:52:00;97956.31;;;4.29;79.33
35226;BME280;21813;49.686;21.766;2023-03-04T10:56:59;97976.97;;;4.15;79.44
35226;BME280;21813;49.686;21.766;2023-03-04T11:01:59;97959.91;;;3.98;78.71
35226;BME280;21813;49.686;21.766;2023-03-04T11:04:30;97961.13;;;3.92;79.31
35226;BME280;21813;49.686;21.766;2023-03-04T11:06:57;97950.91;;;3.91;80.68
35226;BME280;21813;49.686;21.766;2023-03-04T11:09:26;97965.06;;;3.98;79.51
35226;BME280;21813;49.686;21.766;2023-03-04T11:11:58;97958.84;;;4.02;79.89
35226;BME280;21813;49.686;21.766;2023-03-04T11:14:26;97952.56;;;4.06;78.25
35226;BME280;21813;49.686;21.766;2023-03-04T11:16:59;97941.78;;;3.99;79.45
35226;BME280;21813;49.686;21.766;2023-03-04T11:19:38;97958.91;;;4.00;79.28
35226;BME280;21813;49.686;21.766;2023-03-04T11:22:05;97960.56;;;4.02;80.03
35226;BME280;21813;49.686;21.766;2023-03-04T11:24:33;97956.53;;;3.97;79.52
35226;BME280;21813;49.686;21.766;2023-03-04T11:27:05;97947.69;;;4.02;80.92
35226;BME280;21813;49.686;21.766;2023-03-04T11:29:38;97948.13;;;4.08;79.89
35226;BME280;21813;49.686;21.766;2023-03-04T11:32:16;97961.50;;;4.15;79.15
35226;BME280;21813;49.686;21.766;2023-03-04T11:35:03;97969.03;;;4.18;80.07
35226;BME280;21813;49.686;21.766;2023-03-04T11:37:53;97964.78;;;4.17;77.85
35226;BME280;21813;49.686;21.766;2023-03-04T11:40:38;97972.53;;;4.03;78.65
35226;BME280;21813;49.686;21.766;2023-03-04T11:43:13;97965.91;;;3.98;79.17
35226;BME280;21813;49.686;21.766;2023-03-04T11:48:52;97966.72;;;3.99;80.53
35226;BME280;21813;49.686;21.766;2023-03-04T11:54:26;97968.13;;;3.90;77.46
35226;BME280;21813;49.686;21.766;2023-03-04T11:57:00;97956.31;;;3.86;78.77
35226;BME280;21813;49.686;21.766;2023-03-04T12:02:21;97959.25;;;3.80;76.74
35226;BME280;21813;49.686;21.766;2023-03-04T12:15:43;97958.13;;;3.56;79.33
35226;BME280;21813;49.686;21.766;2023-03-04T12:29:38;97960.88;;;3.53;79.06
35226;BME280;21813;49.686;21.766;2023-03-04T12:35:16;97959.69;;;3.29;79.22
35226;BME280;21813;49.686;21.766;2023-03-04T12:43:38;97945.16;;;3.14;78.65
35226;BME280;21813;49.686;21.766;2023-03-04T12:46:16;97950.63;;;3.07;79.03
35226;BME280;21813;49.686;21.766;2023-03-04T12:49:08;97943.63;;;2.95;79.73
35226;BME280;21813;49.686;21.766;2023-03-04T12:54:35;97945.19;;;2.82;80.68
35226;BME280;21813;49.686;21.766;2023-03-04T12:57:08;97945.69;;;2.73;80.99
35226;BME280;21813;49.686;21.766;2023-03-04T12:59:42;97947.13;;;2.63;81.54
35226;BME280;21813;49.686;21.766;2023-03-04T13:10:28;97960.50;;;2.54;84.13
35226;BME280;21813;49.686;21.766;2023-03-04T13:12:55;97951.19;;;2.51;83.54
35226;BME280;21813;49.686;21.766;2023-03-04T13:15:34;97947.06;;;2.49;83.74
35226;BME280;21813;49.686;21.766;2023-03-04T13:20:45;97937.09;;;2.43;83.78
35226;BME280;21813;49.686;21.766;2023-03-04T13:25:47;97932.44;;;2.34;85.19
35226;BME280;21813;49.686;21.766;2023-03-04T13:28:24;97935.25;;;2.29;85.86
35226;BME280;21813;49.686;21.766;2023-03-04T13:38:35;97925.50;;;2.36;86.69
35226;BME280;21813;49.686;21.766;2023-03-04T13:41:21;97920.00;;;2.42;87.13
35226;BME280;21813;49.686;21.766;2023-03-04T13:43:54;97914.59;;;2.46;86.47
35226;BME280;21813;49.686;21.766;2023-03-04T13:51:34;97909.63;;;2.59;86.28
35226;BME280;21813;49.686;21.766;2023-03-04T13:54:22;97914.53;;;2.63;86.25
35226;BME280;21813;49.686;21.766;2023-03-04T13:59:44;97913.19;;;2.72;85.46
35226;BME280;21813;49.686;21.766;2023-03-04T14:02:19;97916.47;;;2.74;85.41
35226;BME280;21813;49.686;21.766;2023-03-04T14:12:43;97920.31;;;2.67;84.89
35226;BME280;21813;49.686;21.766;2023-03-04T14:17:43;97917.50;;;2.56;85.76
35226;BME280;21813;49.686;21.766;2023-03-04T14:20:28;97917.69;;;2.53;85.98
35226;BME280;21813;49.686;21.766;2023-03-04T14:22:55;97919.50;;;2.51;86.14
35226;BME280;21813;49.686;21.766;2023-03-04T14:25:25;97909.13;;;2.52;85.82
35226;BME280;21813;49.686;21.766;2023-03-04T14:28:08;97916.84;;;2.52;84.75
35226;BME280;21813;49.686;21.766;2023-03-04T14:30:59;97912.69;;;2.50;85.18
35226;BME280;21813;49.686;21.766;2023-03-04T14:33:34;97923.91;;;2.49;85.49
35226;BME280;21813;49.686;21.766;2023-03-04T14:36:01;97901.59;;;2.49;86.01
35226;BME280;21813;49.686;21.766;2023-03-04T14:38:32;97895.63;;;2.49;86.57
35226;BME280;21813;49.686;21.766;2023-03-04T14:41:09;97903.16;;;2.52;86.37
35226;BME280;21813;49.686;21.766;2023-03-04T14:46:23;97901.22;;;2.55;86.73
35226;BME280;21813;49.686;21.766;2023-03-04T14:48:56;97903.72;;;2.57;86.55
35226;BME280;21813;49.686;21.766;2023-03-04T14:51:32;97894.19;;;2.59;86.59
35226;BME280;21813;49.686;21.766;2023-03-04T14:54:03;97893.63;;;2.54;87.25
35226;BME280;21813;49.686;21.766;2023-03-04T14:56:30;97900.59;;;2.52;87.45
35226;BME280;21813;49.686;21.766;2023-03-04T14:58:58;97889.53;;;2.50;88.14
35226;BME280;21813;49.686;21.766;2023-03-04T15:01:35;97890.63;;;2.46;88.52
35226;BME280;21813;49.686;21.766;2023-03-04T15:04:06;97883.84;;;2.45;88.97
35226;BME280;21813;49.686;21.766;2023-03-04T15:06:39;97894.28;;;2.42;88.54
35226;BME280;21813;49.686;21.766;2023-03-04T15:09:22;97885.72;;;2.41;89.17
35226;BME280;21813;49.686;21.766;2023-03-04T15:12:05;97892.63;;;2.41;89.18
35226;BME280;21813;49.686;21.766;2023-03-04T15:14:50;97885.00;;;2.39;89.31
35226;BME280;21813;49.686;21.766;2023-03-04T15:17:37;97882.50;;;2.38;89.34
35226;BME280;21813;49.686;21.766;2023-03-04T15:25:04;97892.97;;;2.35;89.65
35226;BME280;21813;49.686;21.766;2023-03-04T15:27:30;97886.16;;;2.34;90.25
35226;BME280;21813;49.686;21.766;2023-03-04T15:29:58;97881.03;;;2.34;89.96
35226;BME280;21813;49.686;21.766;2023-03-04T15:32:25;97887.00;;;2.34;89.88
35226;BME280;21813;49.686;21.766;2023-03-04T15:34:52;97879.53;;;2.30;90.28
35226;BME280;21813;49.686;21.766;2023-03-04T15:37:22;97887.06;;;2.33;90.67
35226;BME280;21813;49.686;21.766;2023-03-04T15:39:50;97887.16;;;2.31;90.79
35226;BME280;21813;49.686;21.766;2023-03-04T15:42:17;97877.78;;;2.30;90.94
35226;BME280;21813;49.686;21.766;2023-03-04T15:44:44;97881.19;;;2.31;91.29
35226;BME280;21813;49.686;21.766;2023-03-04T15:47:10;97882.03;;;2.31;91.58
35226;BME280;21813;49.686;21.766;2023-03-04T15:49:40;97891.47;;;2.31;91.40
35226;BME280;21813;49.686;21.766;2023-03-04T15:52:16;97872.72;;;2.29;91.70
35226;BME280;21813;49.686;21.766;2023-03-04T15:54:44;97866.66;;;2.30;91.35
35226;BME280;21813;49.686;21.766;2023-03-04T15:57:28;97865.84;;;2.29;91.56
35226;BME280;21813;49.686;21.766;2023-03-04T15:59:55;97868.41;;;2.29;91.95
35226;BME280;21813;49.686;21.766;2023-03-04T16:02:27;97873.47;;;2.31;91.60
35226;BME280;21813;49.686;21.766;2023-03-04T16:04:54;97872.66;;;2.30;92.04
35226;BME280;21813;49.686;21.766;2023-03-04T16:07:24;97867.41;;;2.32;92.49
35226;BME280;21813;49.686;21.766;2023-03-04T16:09:53;97861.47;;;2.31;92.25
35226;BME280;21813;49.686;21.766;2023-03-04T16:12:20;97867.59;;;2.29;92.46
35226;BME280;21813;49.686;21.766;2023-03-04T16:14:46;97867.59;;;2.29;92.96
35226;BME280;21813;49.686;21.766;2023-03-04T16:17:13;97874.56;;;2.27;92.83
35226;BME280;21813;49.686;21.766;2023-03-04T16:19:43;97871.88;;;2.28;92.77
35226;BME280;21813;49.686;21.766;2023-03-04T16:22:13;97874.38;;;2.30;93.06
35226;BME280;21813;49.686;21.766;2023-03-04T16:24:43;97864.19;;;2.28;93.21
35226;BME280;21813;49.686;21.766;2023-03-04T16:27:10;97868.47;;;2.28;93.93
35226;BME280;21813;49.686;21.766;2023-03-04T16:29:38;97867.75;;;2.26;93.74
35226;BME280;21813;49.686;21.766;2023-03-04T16:32:04;97867.91;;;2.22;94.39
35226;BME280;21813;49.686;21.766;2023-03-04T16:34:31;97869.56;;;2.23;94.23
35226;BME280;21813;49.686;21.766;2023-03-04T16:36:58;97871.41;;;2.21;94.49
35226;BME280;21813;49.686;21.766;2023-03-04T16:39:29;97875.63;;;2.22;95.10
35226;BME280;21813;49.686;21.766;2023-03-04T16:41:56;97875.63;;;2.22;94.90
35226;BME280;21813;49.686;21.766;2023-03-04T16:44:22;97877.34;;;2.22;95.36
35226;BME280;21813;49.686;21.766;2023-03-04T16:46:48;97874.88;;;2.20;95.21
35226;BME280;21813;49.686;21.766;2023-03-04T16:49:15;97868.09;;;2.19;95.14
35226;BME280;21813;49.686;21.766;2023-03-04T16:51:44;97880.84;;;2.21;95.43
35226;BME280;21813;49.686;21.766;2023-03-04T16:54:14;97876.56;;;2.21;95.76
35226;BME280;21813;49.686;21.766;2023-03-04T16:56:41;97879.13;;;2.21;95.70
35226;BME280;21813;49.686;21.766;2023-03-04T16:59:12;97885.16;;;2.20;96.31
35226;BME280;21813;49.686;21.766;2023-03-04T17:01:39;97862.19;;;2.17;96.33
35226;BME280;21813;49.686;21.766;2023-03-04T17:07:00;97878.38;;;2.19;96.40
35226;BME280;21813;49.686;21.766;2023-03-04T17:09:26;97866.41;;;2.18;96.21
35226;BME280;21813;49.686;21.766;2023-03-04T17:11:52;97871.41;;;2.21;96.35